createdAt,value
2023-02-02T00:01:30.823Z,0.88
2023-02-02T00:03:58.796Z,0.93
2023-02-02T00:06:28.365Z,1.10
2023-02-02T00:08:57.999Z,1.00
2023-02-02T00:11:26.347Z,1.00
2023-02-02T00:13:54.128Z,1.00
2023-02-02T00:16:21.492Z,1.10
2023-02-02T00:18:49.316Z,0.70
2023-02-02T00:21:16.706Z,0.98
2023-02-02T00:23:44.197Z,1.08
2023-02-02T00:26:11.883Z,0.77
2023-02-02T00:28:39.249Z,1.10
2023-02-02T00:31:06.794Z,0.68
2023-02-02T00:33:34.473Z,1.02
2023-02-02T00:36:02.765Z,1.10
2023-02-02T00:38:30.945Z,0.82
2023-02-02T00:40:59.097Z,0.98
2023-02-02T00:43:26.520Z,0.90
2023-02-02T00:45:54.225Z,0.52
2023-02-02T00:48:22.796Z,0.45
2023-02-02T00:50:50.341Z,0.62
2023-02-02T00:53:17.862Z,0.52
2023-02-02T00:55:45.529Z,0.88
2023-02-02T00:58:12.940Z,1.10
2023-02-02T01:00:40.481Z,0.85
2023-02-02T01:03:09.890Z,1.05
2023-02-02T01:05:37.236Z,0.70
2023-02-02T01:08:05.120Z,1.10
2023-02-02T01:10:34.145Z,0.82
2023-02-02T01:13:01.580Z,1.10
2023-02-02T01:15:30.560Z,0.90
2023-02-02T01:17:58.281Z,1.02
2023-02-02T01:20:25.833Z,0.77
2023-02-02T01:22:53.286Z,0.80
2023-02-02T01:25:20.959Z,0.50
2023-02-02T01:27:48.403Z,0.60
2023-02-02T01:30:15.849Z,0.40
2023-02-02T01:32:43.539Z,0.50
2023-02-02T01:35:11.183Z,0.40
2023-02-02T01:37:39.320Z,0.55
2023-02-02T01:40:07.649Z,0.50
2023-02-02T01:42:35.034Z,0.70
2023-02-02T01:45:26.986Z,0.70
2023-02-02T01:47:59.145Z,0.68
2023-02-02T01:50:31.509Z,0.80
2023-02-02T01:53:01.028Z,0.70
2023-02-02T01:55:29.636Z,0.80
2023-02-02T01:57:57.880Z,0.70
2023-02-02T02:00:27.725Z,0.90
2023-02-02T02:03:05.973Z,0.90
2023-02-02T02:05:42.716Z,0.60
2023-02-02T02:08:53.925Z,0.93
2023-02-02T02:11:22.613Z,0.90
2023-02-02T02:14:10.244Z,0.80
2023-02-02T02:16:53.528Z,0.75
2023-02-02T02:20:04.710Z,0.88
2023-02-02T02:23:14.354Z,0.98
2023-02-02T02:26:05.463Z,0.80
2023-02-02T02:28:57.255Z,0.70
2023-02-02T02:32:15.917Z,0.70
2023-02-02T02:34:49.501Z,0.75
2023-02-02T02:37:28.875Z,0.82
2023-02-02T02:40:06.500Z,0.60
2023-02-02T02:42:37.773Z,0.80
2023-02-02T02:45:07.994Z,0.80
2023-02-02T02:47:35.919Z,0.57
2023-02-02T02:50:04.095Z,1.00
2023-02-02T02:52:32.541Z,0.62
2023-02-02T02:55:00.817Z,0.80
2023-02-02T02:58:06.998Z,0.70
2023-02-02T03:00:54.175Z,0.50
2023-02-02T03:03:35.087Z,0.80
2023-02-02T03:06:11.150Z,0.70
2023-02-02T03:08:46.865Z,0.50
2023-02-02T03:11:15.854Z,1.50
2023-02-02T03:13:43.526Z,0.70
2023-02-02T03:16:11.258Z,0.47
2023-02-02T03:18:39.510Z,0.60
2023-02-02T03:21:07.065Z,0.70
2023-02-02T03:23:34.815Z,0.68
2023-02-02T03:26:02.856Z,0.70
2023-02-02T03:28:30.556Z,0.45
2023-02-02T03:31:00.472Z,0.60
2023-02-02T03:33:28.518Z,0.70
2023-02-02T03:35:55.890Z,0.60
2023-02-02T03:38:23.281Z,0.73
2023-02-02T03:40:51.653Z,0.50
2023-02-02T03:43:23.649Z,0.47
2023-02-02T03:46:17.699Z,0.65
2023-02-02T03:48:45.065Z,0.57
2023-02-02T03:51:14.534Z,0.40
2023-02-02T03:53:47.572Z,0.57
2023-02-02T03:56:16.106Z,0.60
2023-02-02T03:58:43.547Z,0.50
2023-02-02T04:01:13.151Z,0.50
2023-02-02T04:03:40.822Z,0.75
2023-02-02T04:06:08.418Z,0.62
2023-02-02T04:08:36.139Z,0.73
2023-02-02T04:11:03.833Z,0.77
2023-02-02T04:13:31.264Z,0.60
2023-02-02T04:16:00.053Z,0.60
2023-02-02T04:18:28.654Z,0.52
2023-02-02T04:20:59.845Z,0.52
2023-02-02T04:23:28.655Z,0.52
2023-02-02T04:25:56.917Z,0.80
2023-02-02T04:28:26.298Z,0.62
2023-02-02T04:30:54.964Z,0.62
2023-02-02T04:33:24.611Z,0.77
2023-02-02T04:35:52.034Z,0.77
2023-02-02T04:38:19.442Z,0.50
2023-02-02T04:40:48.443Z,0.82
2023-02-02T04:43:16.275Z,0.73
2023-02-02T04:45:43.900Z,0.70
2023-02-02T04:48:11.903Z,0.90
2023-02-02T04:50:39.335Z,0.98
2023-02-02T04:53:06.818Z,0.60
2023-02-02T04:55:38.823Z,0.98
2023-02-02T04:58:06.576Z,0.90
2023-02-02T05:00:34.437Z,1.00
2023-02-02T05:03:01.845Z,1.00
2023-02-02T05:05:29.332Z,0.73
2023-02-02T05:07:56.992Z,0.98
2023-02-02T05:10:24.335Z,0.88
2023-02-02T05:12:55.227Z,1.00
2023-02-02T05:15:23.250Z,0.75
2023-02-02T05:17:50.905Z,0.95
2023-02-02T05:20:18.576Z,1.05
2023-02-02T05:22:49.806Z,0.52
2023-02-02T05:25:17.454Z,0.88
2023-02-02T05:27:45.665Z,1.00
2023-02-02T05:30:14.595Z,0.95
2023-02-02T05:32:42.025Z,0.90
2023-02-02T05:35:10.061Z,1.15
2023-02-02T05:37:37.809Z,0.70
2023-02-02T05:40:05.845Z,1.23
2023-02-02T05:42:33.272Z,1.33
2023-02-02T05:45:01.276Z,0.95
2023-02-02T05:47:29.052Z,1.17
2023-02-02T05:49:56.802Z,1.33
2023-02-02T05:52:25.694Z,1.30
2023-02-02T05:54:53.159Z,1.00
2023-02-02T05:57:20.580Z,1.15
2023-02-02T05:59:48.305Z,2.12
2023-02-02T06:02:15.745Z,1.05
2023-02-02T06:04:43.450Z,1.23
2023-02-02T06:07:10.954Z,1.48
2023-02-02T06:09:38.384Z,1.40
2023-02-02T06:12:06.410Z,1.20
2023-02-02T06:14:33.761Z,1.20
2023-02-02T06:17:01.413Z,1.40
2023-02-02T06:19:29.050Z,1.17
2023-02-02T06:21:56.405Z,1.55
2023-02-02T06:24:24.565Z,1.50
2023-02-02T06:26:52.329Z,1.20
2023-02-02T06:29:19.776Z,1.20
2023-02-02T06:31:47.351Z,1.08
2023-02-02T06:34:15.045Z,1.33
2023-02-02T06:36:42.487Z,1.10
2023-02-02T06:39:10.293Z,1.30
2023-02-02T06:41:37.941Z,1.30
2023-02-02T06:44:05.321Z,1.42
2023-02-02T06:46:32.789Z,1.20
2023-02-02T06:49:00.625Z,1.33
2023-02-02T06:51:28.039Z,1.10
2023-02-02T06:53:57.655Z,1.50
2023-02-02T06:56:26.163Z,1.10
2023-02-02T06:58:53.855Z,1.35
2023-02-02T07:01:21.346Z,1.17
2023-02-02T07:03:52.450Z,1.10
2023-02-02T07:06:26.592Z,1.12
2023-02-02T07:09:01.641Z,0.90
2023-02-02T07:11:34.446Z,0.90
2023-02-02T07:14:04.571Z,1.00
2023-02-02T07:16:32.108Z,0.93
2023-02-02T07:18:59.526Z,0.90
2023-02-02T07:21:35.644Z,0.90
2023-02-02T07:24:04.625Z,0.77
2023-02-02T07:26:35.256Z,0.52
2023-02-02T07:29:04.418Z,0.60
2023-02-02T07:31:34.812Z,1.40
2023-02-02T07:34:03.590Z,0.70
2023-02-02T07:36:31.134Z,0.90
2023-02-02T07:38:59.737Z,0.68
2023-02-02T07:41:27.917Z,0.70
2023-02-02T07:43:55.565Z,0.57
2023-02-02T07:46:23.371Z,0.80
2023-02-02T07:48:54.426Z,0.70
2023-02-02T07:51:22.316Z,0.82
2023-02-02T07:53:52.559Z,0.88
2023-02-02T07:56:25.622Z,0.90
2023-02-02T07:58:54.979Z,0.85
2023-02-02T08:01:23.532Z,0.70
2023-02-02T08:03:51.222Z,0.60
2023-02-02T08:06:21.530Z,0.50
2023-02-02T08:08:49.197Z,0.70
2023-02-02T08:11:20.187Z,0.85
2023-02-02T08:13:56.350Z,0.57
2023-02-02T08:16:25.186Z,0.57
2023-02-02T08:18:53.131Z,0.80
2023-02-02T08:21:21.066Z,0.77
2023-02-02T08:23:49.176Z,0.70
2023-02-02T08:26:20.703Z,0.70
2023-02-02T08:28:54.144Z,0.80
2023-02-02T08:31:24.191Z,0.73
2023-02-02T08:33:53.953Z,0.77
2023-02-02T08:36:23.709Z,0.62
2023-02-02T08:38:51.679Z,0.85
2023-02-02T08:41:24.231Z,0.98
2023-02-02T08:43:51.949Z,0.68
2023-02-02T08:46:20.835Z,0.50
2023-02-02T08:48:48.926Z,0.80
2023-02-02T08:51:18.812Z,0.75
2023-02-02T08:53:46.804Z,0.80
2023-02-02T08:56:19.374Z,1.00
2023-02-02T08:58:49.390Z,0.60
2023-02-02T09:01:18.368Z,0.77
2023-02-02T09:03:46.210Z,2.17
2023-02-02T09:06:16.319Z,0.80
2023-02-02T09:08:44.080Z,1.08
2023-02-02T09:11:14.418Z,1.00
2023-02-02T09:13:43.120Z,0.88
2023-02-02T09:16:11.414Z,0.80
2023-02-02T09:18:39.733Z,0.77
2023-02-02T09:21:10.079Z,0.68
2023-02-02T09:23:39.471Z,0.98
2023-02-02T09:26:27.008Z,1.05
2023-02-02T09:28:56.875Z,0.80
2023-02-02T09:31:25.378Z,0.90
2023-02-02T09:33:52.956Z,0.80
2023-02-02T09:36:24.633Z,0.60
2023-02-02T09:38:52.437Z,1.20
2023-02-02T09:41:35.383Z,3.00
2023-02-02T09:44:02.964Z,4.10
2023-02-02T09:46:36.174Z,21.40
2023-02-02T09:49:09.349Z,10.85
2023-02-02T09:51:40.797Z,13.50
2023-02-02T09:54:24.261Z,9.60
2023-02-02T09:56:55.876Z,1.87
2023-02-02T09:59:27.907Z,4.30
2023-02-02T10:01:57.935Z,0.98
2023-02-02T10:04:36.719Z,0.90
2023-02-02T10:07:13.174Z,1.02
2023-02-02T10:10:00.403Z,1.45
2023-02-02T10:12:47.373Z,0.82
2023-02-02T10:15:44.807Z,1.02
2023-02-02T10:18:18.499Z,0.90
2023-02-02T10:20:47.874Z,0.98
2023-02-02T10:23:24.692Z,0.95
2023-02-02T10:26:12.237Z,1.00
2023-02-02T10:28:53.023Z,1.20
2023-02-02T10:31:58.417Z,1.05
2023-02-02T10:34:40.724Z,0.82
2023-02-02T10:37:27.162Z,0.82
2023-02-02T10:40:19.478Z,0.85
2023-02-02T10:45:35.206Z,2.65
2023-02-02T10:48:03.306Z,1.37
2023-02-02T10:50:30.742Z,0.90
2023-02-02T10:53:03.423Z,0.90
2023-02-02T10:55:44.042Z,0.75
2023-02-02T10:58:11.703Z,1.10
2023-02-02T11:00:46.277Z,0.85
2023-02-02T11:03:15.449Z,0.90
2023-02-02T11:06:01.934Z,1.10
2023-02-02T11:08:58.142Z,3.70
2023-02-02T11:11:35.711Z,11.30
2023-02-02T11:14:09.473Z,6.37
2023-02-02T11:16:44.239Z,1.58
2023-02-02T11:19:18.225Z,2.25
2023-02-02T11:21:48.533Z,1.12
2023-02-02T11:24:27.027Z,0.60
2023-02-02T11:27:05.650Z,0.68
2023-02-02T11:29:39.089Z,0.85
2023-02-02T11:32:25.108Z,1.45
2023-02-02T11:35:01.798Z,1.58
2023-02-02T11:37:38.904Z,3.92
2023-02-02T11:40:35.958Z,1.67
2023-02-02T11:43:18.984Z,1.00
2023-02-02T11:45:51.614Z,1.20
2023-02-02T11:48:22.345Z,1.08
2023-02-02T11:50:52.496Z,0.70
2023-02-02T11:53:23.989Z,0.90
2023-02-02T11:55:52.857Z,1.17
2023-02-02T11:58:28.892Z,0.82
2023-02-02T12:01:01.577Z,0.82
2023-02-02T12:03:33.889Z,0.60
2023-02-02T12:06:04.532Z,0.80
2023-02-02T12:08:32.217Z,0.80
2023-02-02T12:11:01.290Z,0.75
2023-02-02T12:13:35.578Z,0.88
2023-02-02T12:16:26.131Z,0.85
2023-02-02T12:19:26.756Z,1.17
2023-02-02T12:22:06.368Z,1.17
2023-02-02T12:24:49.137Z,4.65
2023-02-02T12:27:22.412Z,1.12
2023-02-02T12:29:56.999Z,1.00
2023-02-02T12:33:21.696Z,1.15
2023-02-02T12:35:59.338Z,0.90
2023-02-02T12:38:49.336Z,0.80
2023-02-02T12:41:43.041Z,0.95
2023-02-02T12:44:55.730Z,1.20
2023-02-02T12:47:33.767Z,3.37
2023-02-02T12:50:07.386Z,2.08
2023-02-02T12:52:37.719Z,1.40
2023-02-02T12:55:24.123Z,1.40
2023-02-02T12:57:51.453Z,0.90
2023-02-02T13:00:45.195Z,1.85
2023-02-02T13:03:24.522Z,1.80
2023-02-02T13:05:58.150Z,0.90
2023-02-02T13:08:33.729Z,0.90
2023-02-02T13:11:08.267Z,0.88
2023-02-02T13:13:38.438Z,1.33
2023-02-02T13:16:08.846Z,1.20
2023-02-02T13:18:39.874Z,1.33
2023-02-02T13:21:12.494Z,1.98
2023-02-02T13:23:43.654Z,1.17
2023-02-02T13:26:20.667Z,1.17
2023-02-02T13:28:56.728Z,1.58
2023-02-02T13:31:28.991Z,2.30
2023-02-02T13:34:05.487Z,0.85
2023-02-02T13:36:37.340Z,0.80
2023-02-02T13:39:15.232Z,0.80
2023-02-02T13:41:43.141Z,1.10
2023-02-02T13:44:32.311Z,1.27
2023-02-02T13:47:04.499Z,1.30
2023-02-02T13:49:36.805Z,1.02
2023-02-02T13:52:29.593Z,0.80
2023-02-02T13:55:18.933Z,1.10
2023-02-02T13:57:59.281Z,1.10
2023-02-02T14:00:42.997Z,1.27
2023-02-02T14:03:29.133Z,0.95
2023-02-02T14:06:06.559Z,0.82
2023-02-02T14:08:34.759Z,0.98
2023-02-02T14:11:05.299Z,1.27
2023-02-02T14:14:04.319Z,1.27
2023-02-02T14:16:31.926Z,1.05
2023-02-02T14:19:00.871Z,1.52
2023-02-02T14:21:31.344Z,1.10
2023-02-02T14:24:27.327Z,1.35
2023-02-02T14:27:00.233Z,1.30
2023-02-02T14:29:31.514Z,1.00
2023-02-02T14:32:00.975Z,1.02
2023-02-02T14:34:39.603Z,1.80
2023-02-02T14:37:09.991Z,0.85
2023-02-02T14:39:46.554Z,1.00
2023-02-02T14:42:53.438Z,1.60
2023-02-02T14:45:31.220Z,1.55
2023-02-02T14:48:20.845Z,1.70
2023-02-02T14:50:56.933Z,1.15
2023-02-02T14:53:29.561Z,0.95
2023-02-02T14:56:15.106Z,1.00
2023-02-02T14:58:54.049Z,1.23
2023-02-02T15:01:27.323Z,1.45
2023-02-02T15:04:20.871Z,1.30
2023-02-02T15:06:51.106Z,1.05
2023-02-02T15:09:27.895Z,1.45
2023-02-02T15:12:04.728Z,1.95
2023-02-02T15:14:48.921Z,1.10
2023-02-02T15:17:25.298Z,1.70
2023-02-02T15:20:06.555Z,1.50
2023-02-02T15:22:46.685Z,1.45
2023-02-02T15:25:26.877Z,1.42
2023-02-02T15:28:32.501Z,1.15
2023-02-02T15:31:04.900Z,1.30
2023-02-02T15:33:42.303Z,1.50
2023-02-02T15:36:12.718Z,1.15
2023-02-02T15:38:41.888Z,1.55
2023-02-02T15:41:18.414Z,1.33
2023-02-02T15:43:46.326Z,1.40
2023-02-02T15:46:26.308Z,1.30
2023-02-02T15:49:33.283Z,1.87
2023-02-02T15:52:10.375Z,1.90
2023-02-02T15:54:38.271Z,1.62
2023-02-02T15:57:22.701Z,1.90
2023-02-02T15:59:50.563Z,2.00
2023-02-02T16:02:31.917Z,2.20
2023-02-02T16:04:59.559Z,1.90
2023-02-02T16:07:32.109Z,1.62
2023-02-02T16:10:20.101Z,1.08
2023-02-02T16:12:48.058Z,1.70
2023-02-02T16:15:20.348Z,1.67
2023-02-02T16:18:10.779Z,1.87
2023-02-02T16:20:39.001Z,1.75
2023-02-02T16:23:13.785Z,1.45
2023-02-02T16:25:49.169Z,1.62
2023-02-02T16:28:18.717Z,1.60
2023-02-02T16:30:46.643Z,1.40
2023-02-02T16:33:27.787Z,1.55
2023-02-02T16:35:56.091Z,1.48
2023-02-02T16:38:23.546Z,1.30
2023-02-02T16:41:05.051Z,1.30
2023-02-02T16:43:33.509Z,1.67
2023-02-02T16:46:04.606Z,1.37
2023-02-02T16:48:46.685Z,1.50
2023-02-02T16:51:17.913Z,1.60
2023-02-02T16:53:49.003Z,2.15
2023-02-02T16:56:31.035Z,2.03
2023-02-02T16:59:18.832Z,1.80
2023-02-02T17:01:50.038Z,1.70
2023-02-02T17:04:27.289Z,1.87
2023-02-02T17:06:57.595Z,2.25
2023-02-02T17:09:35.140Z,3.15
2023-02-02T17:12:03.583Z,2.50
2023-02-02T17:14:37.166Z,2.47
2023-02-02T17:17:06.472Z,1.73
2023-02-02T17:19:33.927Z,2.05
2023-02-02T17:22:05.172Z,1.55
2023-02-02T17:24:33.176Z,3.03
2023-02-02T17:27:00.862Z,3.25
2023-02-02T17:29:28.596Z,4.22
2023-02-02T17:31:56.739Z,3.35
2023-02-02T17:34:25.092Z,1.92
2023-02-02T17:36:54.153Z,2.60
2023-02-02T17:39:21.873Z,2.70
2023-02-02T17:41:50.221Z,2.42
2023-02-02T17:44:17.628Z,2.58
2023-02-02T17:46:45.340Z,2.40
2023-02-02T17:49:12.761Z,2.00
2023-02-02T17:51:43.431Z,1.77
2023-02-02T17:54:12.672Z,2.60
2023-02-02T17:56:40.829Z,2.58
2023-02-02T17:59:08.796Z,2.37
2023-02-02T18:01:39.408Z,2.15
2023-02-02T18:04:07.273Z,2.00
2023-02-02T18:06:34.851Z,1.85
2023-02-02T18:09:02.241Z,2.33
2023-02-02T18:11:29.935Z,2.17
2023-02-02T18:13:57.362Z,2.87
2023-02-02T18:16:24.788Z,5.15
2023-02-02T18:18:53.638Z,3.30
2023-02-02T18:21:21.439Z,3.75
2023-02-02T18:23:49.554Z,4.60
2023-02-02T18:26:22.098Z,2.95
2023-02-02T18:28:50.451Z,2.92
2023-02-02T18:31:20.667Z,2.75
2023-02-02T18:33:48.204Z,3.95
2023-02-02T18:36:19.993Z,3.25
2023-02-02T18:38:49.027Z,3.17
2023-02-02T18:41:18.177Z,2.58
2023-02-02T18:43:45.583Z,3.20
2023-02-02T18:46:15.207Z,2.90
2023-02-02T18:48:43.071Z,2.70
2023-02-02T18:51:17.003Z,2.30
2023-02-02T18:53:45.793Z,2.80
2023-02-02T18:56:15.333Z,3.33
2023-02-02T18:58:42.860Z,3.15
2023-02-02T19:01:13.210Z,2.90
2023-02-02T19:03:40.928Z,2.22
2023-02-02T19:06:28.076Z,2.28
2023-02-02T19:08:55.759Z,2.40
2023-02-02T19:11:26.701Z,2.33
2023-02-02T19:13:54.131Z,2.35
2023-02-02T19:16:26.045Z,2.08
2023-02-02T19:19:19.783Z,1.92
2023-02-02T19:21:47.528Z,2.60
2023-02-02T19:24:16.386Z,2.42
2023-02-02T19:26:49.379Z,2.53
2023-02-02T19:29:20.511Z,2.50
2023-02-02T19:31:53.786Z,2.28
2023-02-02T19:34:22.694Z,2.15
2023-02-02T19:36:51.226Z,2.92
2023-02-02T19:39:21.946Z,3.95
2023-02-02T19:41:50.646Z,2.40
2023-02-02T19:44:23.099Z,2.58
2023-02-02T19:46:52.383Z,2.37
2023-02-02T19:49:24.345Z,1.85
2023-02-02T19:51:54.971Z,2.40
2023-02-02T19:54:29.754Z,2.00
2023-02-02T19:57:00.013Z,2.12
2023-02-02T19:59:33.756Z,2.30
2023-02-02T20:02:40.435Z,2.00
2023-02-02T20:05:11.166Z,2.20
2023-02-02T20:07:39.144Z,2.50
2023-02-02T20:10:20.524Z,2.25
2023-02-02T20:12:49.240Z,2.50
2023-02-02T20:15:28.716Z,2.03
2023-02-02T20:17:58.244Z,2.12
2023-02-02T20:20:32.604Z,2.12
2023-02-02T20:23:00.463Z,3.50
2023-02-02T20:25:32.153Z,2.35
2023-02-02T20:28:07.388Z,2.37
2023-02-02T20:30:35.191Z,2.50
2023-02-02T20:33:08.852Z,2.33
2023-02-02T20:35:39.419Z,2.62
2023-02-02T20:38:28.454Z,2.12
2023-02-02T20:40:56.327Z,2.33
2023-02-02T20:43:24.077Z,2.28
2023-02-02T20:45:51.506Z,2.50
2023-02-02T20:48:19.011Z,2.42
2023-02-02T20:50:46.943Z,2.12
2023-02-02T20:53:16.451Z,2.70
2023-02-02T20:55:44.603Z,2.25
2023-02-02T20:58:13.255Z,2.80
2023-02-02T21:00:40.720Z,2.97
2023-02-02T21:03:08.230Z,3.60
2023-02-02T21:05:35.943Z,3.10
2023-02-02T21:08:03.339Z,3.40
2023-02-02T21:10:31.531Z,2.55
2023-02-02T21:12:59.202Z,2.53
2023-02-02T21:15:26.776Z,3.20
2023-02-02T21:17:54.165Z,2.70
2023-02-02T21:20:21.921Z,2.80
2023-02-02T21:22:49.683Z,2.78
2023-02-02T21:25:17.297Z,2.97
2023-02-02T21:27:44.956Z,2.60
2023-02-02T21:30:14.144Z,3.45
2023-02-02T21:32:41.605Z,2.67
2023-02-02T21:35:09.806Z,2.45
2023-02-02T21:37:37.702Z,3.10
2023-02-02T21:40:13.862Z,2.62
2023-02-02T21:42:49.247Z,2.35
2023-02-02T21:45:22.638Z,2.47
2023-02-02T21:47:52.080Z,2.28
2023-02-02T21:50:29.210Z,2.80
2023-02-02T21:53:21.262Z,2.47
2023-02-02T21:55:56.794Z,2.90
2023-02-02T21:58:38.259Z,4.00
2023-02-02T22:01:29.197Z,3.35
2023-02-02T22:03:56.881Z,3.08
2023-02-02T22:06:33.383Z,3.15
2023-02-02T22:09:12.398Z,2.42
2023-02-02T22:11:55.031Z,2.47
2023-02-02T22:14:33.166Z,2.45
2023-02-02T22:17:00.556Z,2.62
2023-02-02T22:19:28.201Z,2.65
2023-02-02T22:22:11.070Z,2.70
2023-02-02T22:24:38.849Z,2.35
2023-02-02T22:27:17.616Z,2.70
2023-02-02T22:29:45.502Z,2.22
2023-02-02T22:32:12.895Z,2.37
2023-02-02T22:34:40.236Z,2.30
2023-02-02T22:37:08.017Z,2.67
2023-02-02T22:39:38.602Z,2.90
2023-02-02T22:42:06.040Z,2.30
2023-02-02T22:44:33.662Z,2.78
2023-02-02T22:47:01.319Z,2.00
2023-02-02T22:49:28.668Z,2.05
2023-02-02T22:51:56.350Z,2.53
2023-02-02T22:54:23.727Z,2.15
2023-02-02T22:56:51.107Z,2.53
2023-02-02T22:59:18.745Z,2.72
2023-02-02T23:01:46.210Z,1.95
2023-02-02T23:04:13.654Z,2.55
2023-02-02T23:06:42.104Z,2.08
2023-02-02T23:09:09.512Z,1.65
2023-02-02T23:11:36.885Z,1.67
2023-02-02T23:14:04.535Z,2.15
2023-02-02T23:16:32.041Z,1.87
2023-02-02T23:18:59.415Z,1.70
2023-02-02T23:21:27.071Z,1.70
2023-02-02T23:23:55.827Z,1.50
2023-02-02T23:26:23.842Z,1.55
2023-02-02T23:28:51.784Z,1.50
2023-02-02T23:31:19.284Z,1.27
2023-02-02T23:33:46.710Z,1.67
2023-02-02T23:36:14.368Z,2.00
2023-02-02T23:38:41.856Z,1.45
2023-02-02T23:41:09.233Z,1.80
2023-02-02T23:43:36.876Z,1.87
2023-02-02T23:46:04.475Z,1.62
2023-02-02T23:48:31.870Z,1.70
2023-02-02T23:50:59.594Z,1.73
2023-02-02T23:53:27.030Z,2.00
2023-02-02T23:55:54.676Z,1.62
2023-02-02T23:58:22.405Z,1.58
